createdAt,value
2023-02-15T00:06:30.836Z,-2.10
2023-02-15T07:28:50.372Z,-1.60
2023-02-15T07:52:40.504Z,-0.70
2023-02-15T07:58:10.565Z,-0.40
2023-02-15T08:29:59.181Z,0.30
2023-02-15T08:34:59.958Z,1.40
2023-02-15T08:45:59.522Z,2.00
2023-02-15T08:51:34.507Z,2.40
2023-02-15T08:57:39.656Z,2.60
2023-02-15T09:02:33.228Z,2.90
2023-02-15T09:07:19.875Z,3.10
2023-02-15T09:13:00.342Z,3.50
2023-02-15T09:18:30.613Z,3.50
2023-02-15T09:23:31.648Z,3.70
2023-02-15T09:28:53.889Z,4.00
2023-02-15T09:33:47.972Z,4.30
2023-02-15T09:38:49.625Z,4.60
2023-02-15T09:44:25.950Z,5.00
2023-02-15T09:50:17.088Z,5.20
2023-02-15T09:55:23.546Z,5.60
2023-02-15T10:00:43.625Z,6.10
2023-02-15T10:05:44.548Z,6.40
2023-02-15T10:10:51.411Z,6.50
2023-02-15T10:22:01.330Z,6.80
2023-02-15T10:26:49.007Z,6.90
2023-02-15T10:31:51.848Z,7.10
2023-02-15T10:37:28.101Z,7.20
2023-02-15T10:43:06.522Z,7.30
2023-02-15T10:48:44.158Z,7.30
2023-02-15T10:54:01.119Z,7.40
2023-02-15T10:59:33.517Z,7.30
2023-02-15T11:05:24.610Z,7.30
2023-02-15T11:16:05.485Z,7.10
2023-02-15T11:21:48.989Z,7.30
2023-02-15T11:38:35.508Z,7.40
2023-02-15T11:49:42.164Z,7.80
2023-02-15T11:55:23.050Z,7.60
2023-02-15T12:00:42.715Z,7.60
2023-02-15T12:11:23.122Z,7.70
2023-02-15T12:16:25.320Z,7.80
2023-02-15T12:22:04.893Z,7.80
2023-02-15T12:28:09.470Z,7.90
2023-02-15T12:33:48.234Z,7.90
2023-02-15T12:44:27.077Z,8.10
2023-02-15T12:49:48.268Z,8.10
2023-02-15T12:55:34.742Z,8.20
2023-02-15T13:00:43.787Z,8.30
2023-02-15T13:05:58.179Z,8.40
2023-02-15T13:23:06.241Z,8.30
2023-02-15T13:28:20.522Z,8.20
2023-02-15T13:33:45.883Z,8.10
2023-02-15T13:39:00.917Z,8.20
2023-02-15T13:44:08.556Z,8.00
2023-02-15T14:01:47.365Z,7.70
2023-02-15T14:07:17.173Z,7.50
2023-02-15T14:12:56.997Z,7.50
2023-02-15T14:18:46.971Z,7.30
2023-02-15T14:30:01.996Z,6.80
2023-02-15T14:35:34.565Z,6.70
2023-02-15T14:41:23.903Z,6.40
2023-02-15T14:46:45.685Z,6.30
2023-02-15T14:53:28.771Z,6.20
2023-02-15T14:58:30.088Z,6.20
2023-02-15T15:04:50.825Z,6.20
2023-02-15T15:10:00.114Z,6.10
2023-02-15T15:15:02.617Z,5.70
2023-02-15T15:20:24.809Z,5.50
2023-02-15T15:33:07.313Z,5.10
2023-02-15T15:39:04.993Z,4.60
2023-02-15T15:56:58.368Z,3.80
2023-02-15T16:01:45.678Z,3.50
2023-02-15T16:07:23.176Z,3.20
2023-02-15T16:12:26.587Z,3.10
2023-02-15T16:24:26.309Z,2.60
2023-02-15T16:35:40.168Z,2.20
2023-02-15T16:40:43.805Z,1.90
2023-02-15T16:45:41.603Z,1.50
2023-02-15T16:51:04.672Z,1.30
2023-02-15T16:56:09.991Z,1.10
2023-02-15T17:01:31.620Z,0.90
2023-02-15T17:07:16.706Z,0.70
2023-02-15T17:12:56.409Z,0.70
2023-02-15T17:17:46.299Z,0.70
2023-02-15T17:23:01.245Z,0.70
2023-02-15T17:28:12.778Z,0.50
2023-02-15T17:33:46.672Z,0.40
2023-02-15T17:39:08.832Z,0.30
2023-02-15T17:44:53.964Z,0.20
2023-02-15T17:50:43.755Z,0.20
2023-02-15T17:55:50.921Z,0.10
2023-02-15T18:01:43.046Z,0.00
2023-02-15T18:23:48.770Z,-0.40
2023-02-15T18:28:44.017Z,-0.30
2023-02-15T18:34:04.628Z,-0.30
2023-02-15T18:39:16.254Z,-0.30
2023-02-15T18:44:27.893Z,-0.50
2023-02-15T18:50:02.224Z,-0.60
2023-02-15T18:55:49.038Z,-0.70
2023-02-15T19:01:29.813Z,-0.80
2023-02-15T19:06:30.778Z,-0.90
2023-02-15T22:55:33.377Z,-2.00
2023-02-15T23:00:51.517Z,-1.90
